Time;durP1;ratioP1;P1;durP2;ratioP2;P2;SDS_P1;SDS_P2;PMS_P1;PMS_P2;Temp;Humidity;BMP_temperature;BMP_pressure;BME280_temperature;BME280_humidity;BME280_pressure;Samples;Min_cycle;Max_cycle;Signal;HPM_P1;HPM_P2
2022/06/18 00:02:44;;;;;;;1.02;0.93;;;25.30;57.60;;;;;;6282847;28;22244;-48
2022/06/18 00:05:47;;;;;;;1.15;0.93;;;25.20;57.40;;;;;;6286050;28;20044;-50
2022/06/18 00:08:50;;;;;;;1.05;0.95;;;25.20;57.40;;;;;;6280279;28;20929;-50
2022/06/18 00:15:14;;;;;;;0.63;0.60;;;25.20;57.10;;;;;;6278357;28;20052;-47
2022/06/18 00:18:15;;;;;;;0.85;0.85;;;25.10;56.90;;;;;;6281357;28;20046;-50
2022/06/18 00:21:20;;;;;;;1.02;0.65;;;25.20;56.90;;;;;;6283901;28;20063;-51
2022/06/18 00:24:22;;;;;;;1.20;0.85;;;25.00;56.70;;;;;;6276933;28;20171;-50
2022/06/18 00:27:24;;;;;;;0.80;0.80;;;25.10;56.60;;;;;;6283422;28;20166;-49
2022/06/18 00:30:29;;;;;;;0.73;0.70;;;25.00;56.60;;;;;;6281192;28;20139;-50
2022/06/18 00:33:31;;;;;;;0.70;0.70;;;25.10;56.50;;;;;;6260641;28;20040;-49
2022/06/18 00:36:36;;;;;;;0.85;0.70;;;25.10;56.50;;;;;;6275083;28;20574;-48
2022/06/18 00:39:37;;;;;;;0.80;0.80;;;25.10;56.50;;;;;;6274582;28;20151;-51
2022/06/18 00:42:42;;;;;;;0.88;0.85;;;25.10;56.50;;;;;;6277436;28;20051;-51
2022/06/18 00:45:44;;;;;;;0.80;0.80;;;25.10;56.40;;;;;;6276916;28;20047;-47
2022/06/18 00:48:50;;;;;;;0.95;0.80;;;24.60;56.20;;;;;;6276033;28;20040;-47
2022/06/18 00:51:55;;;;;;;1.02;0.80;;;25.10;56.50;;;;;;6277300;28;20054;-51
2022/06/18 00:55:01;;;;;;;0.80;0.68;;;25.10;56.50;;;;;;6275587;28;20063;-50
2022/06/18 00:58:07;;;;;;;0.70;0.70;;;25.00;56.50;;;;;;6273126;28;20043;-58
2022/06/18 01:01:15;;;;;;;0.80;0.80;;;25.00;56.50;;;;;;6276118;28;20047;-48
2022/06/18 01:04:24;;;;;;;0.93;0.85;;;25.00;56.50;;;;;;6280812;28;20039;-48
2022/06/18 01:07:30;;;;;;;0.95;0.80;;;25.00;56.60;;;;;;6280270;28;20130;-48
2022/06/18 01:10:35;;;;;;;1.00;0.90;;;25.00;56.70;;;;;;6284185;28;20040;-49
2022/06/18 01:13:40;;;;;;;0.95;0.80;;;25.00;56.70;;;;;;6286327;28;20154;-49
2022/06/18 01:16:45;;;;;;;1.00;0.90;;;25.00;56.90;;;;;;6284908;28;20757;-47
2022/06/18 01:19:51;;;;;;;0.80;0.80;;;24.90;56.90;;;;;;6284208;28;20195;-51
2022/06/18 01:23:01;;;;;;;1.10;1.00;;;24.90;57.10;;;;;;6286310;28;20970;-49
2022/06/18 01:26:04;;;;;;;1.00;0.80;;;24.80;57.20;;;;;;6268041;28;20053;-45
2022/06/18 01:29:06;;;;;;;0.95;0.90;;;24.90;57.70;;;;;;6271929;28;20502;-47
2022/06/18 01:32:11;;;;;;;0.80;0.73;;;24.80;57.40;;;;;;6270207;28;20689;-48
2022/06/18 01:35:13;;;;;;;0.95;0.90;;;24.90;57.70;;;;;;6272623;28;20418;-48
2022/06/18 01:38:30;;;;;;;1.10;1.00;;;25.00;57.80;;;;;;6271448;28;20040;-49
2022/06/18 01:45:02;;;;;;;1.05;0.98;;;24.90;58.00;;;;;;6271173;28;20186;-48
2022/06/18 01:48:16;;;;;;;1.20;0.95;;;24.80;58.00;;;;;;6271970;28;20050;-48
2022/06/18 01:51:23;;;;;;;1.08;0.90;;;24.90;58.20;;;;;;6274024;28;20052;-47
2022/06/18 01:54:30;;;;;;;1.10;1.00;;;24.90;58.30;;;;;;6273891;28;20289;-49
2022/06/18 01:57:41;;;;;;;1.13;0.90;;;24.80;58.30;;;;;;6270831;28;20158;-51
2022/06/18 02:00:46;;;;;;;1.13;1.00;;;24.80;58.40;;;;;;6272604;28;20369;-49
2022/06/18 02:03:48;;;;;;;0.85;0.85;;;24.80;58.40;;;;;;6273641;28;20039;-49
2022/06/18 02:06:52;;;;;;;0.80;0.80;;;24.80;58.50;;;;;;6271291;28;20050;-47
2022/06/18 02:10:01;;;;;;;1.10;1.00;;;24.80;58.60;;;;;;6257674;28;20392;-47
2022/06/18 02:13:04;;;;;;;0.90;0.70;;;24.80;58.70;;;;;;6270134;28;20047;-47
2022/06/18 02:16:10;;;;;;;0.90;0.90;;;24.70;58.70;;;;;;6271071;28;20349;-48
2022/06/18 02:19:12;;;;;;;1.00;0.90;;;24.80;58.80;;;;;;6272707;28;20447;-47
2022/06/18 02:22:15;;;;;;;1.08;0.98;;;24.70;58.80;;;;;;6269988;28;20047;-48
2022/06/18 02:25:20;;;;;;;1.20;1.10;;;24.60;59.00;;;;;;6266754;28;20090;-48
2022/06/18 02:28:24;;;;;;;1.13;1.00;;;24.70;59.00;;;;;;6269745;28;20267;-49
2022/06/18 02:31:28;;;;;;;1.23;1.13;;;24.70;59.10;;;;;;6271541;28;20048;-52
2022/06/18 02:34:31;;;;;;;1.10;1.00;;;24.70;59.10;;;;;;6271251;28;20962;-47
2022/06/18 02:37:33;;;;;;;1.23;1.13;;;24.70;59.10;;;;;;6273451;28;20036;-46
2022/06/18 02:40:34;;;;;;;1.00;0.90;;;24.60;59.10;;;;;;6269480;28;20035;-50
2022/06/18 02:43:37;;;;;;;1.15;1.05;;;24.70;59.10;;;;;;6271271;28;20082;-48
2022/06/18 02:46:40;;;;;;;1.10;1.00;;;24.70;59.20;;;;;;6273742;28;20104;-46
2022/06/18 02:49:46;;;;;;;1.08;0.98;;;24.70;59.30;;;;;;6274991;28;20055;-48
2022/06/18 02:52:53;;;;;;;1.20;1.10;;;24.70;59.30;;;;;;6268694;28;20571;-48
2022/06/18 02:55:58;;;;;;;1.27;1.17;;;24.60;59.20;;;;;;6268369;28;20053;-48
2022/06/18 02:59:04;;;;;;;1.05;0.85;;;24.70;59.30;;;;;;6269528;28;20821;-50
2022/06/18 03:02:08;;;;;;;1.20;1.10;;;24.60;59.20;;;;;;6268252;28;20514;-49
2022/06/18 03:05:18;;;;;;;1.08;0.98;;;24.60;59.20;;;;;;6270862;28;20629;-46
2022/06/18 03:08:21;;;;;;;1.15;1.05;;;24.60;59.20;;;;;;6262730;28;20117;-48
2022/06/18 03:14:40;;;;;;;1.10;1.00;;;24.60;59.20;;;;;;6269642;28;20047;-48
2022/06/18 03:17:42;;;;;;;1.20;1.10;;;24.70;59.30;;;;;;6268772;28;20292;-48
2022/06/18 03:20:56;;;;;;;0.98;0.90;;;24.70;59.30;;;;;;6273868;28;20081;-47
2022/06/18 03:23:58;;;;;;;1.20;1.10;;;24.60;59.30;;;;;;6271172;28;20351;-46
2022/06/18 03:27:00;;;;;;;1.05;1.00;;;24.50;59.20;;;;;;6270192;28;20046;-49
2022/06/18 03:30:04;;;;;;;1.00;0.90;;;24.50;59.20;;;;;;6274654;28;20043;-51
2022/06/18 03:33:06;;;;;;;0.98;0.88;;;24.50;59.20;;;;;;6273389;28;20495;-48
2022/06/18 03:36:10;;;;;;;1.10;1.00;;;24.50;59.20;;;;;;6273822;28;20939;-47
2022/06/18 03:39:12;;;;;;;1.10;1.00;;;24.50;59.20;;;;;;6269477;28;20044;-49
2022/06/18 03:42:14;;;;;;;1.10;1.00;;;24.50;59.20;;;;;;6273716;28;20311;-51
2022/06/18 03:45:17;;;;;;;1.33;1.15;;;24.40;59.20;;;;;;6267167;28;20720;-46
2022/06/18 03:48:26;;;;;;;1.15;1.05;;;24.50;59.90;;;;;;6272514;28;20040;-46
2022/06/18 03:51:29;;;;;;;1.35;0.90;;;24.40;59.20;;;;;;6271244;28;20900;-48
2022/06/18 03:54:31;;;;;;;1.02;1.00;;;24.40;59.10;;;;;;6269191;28;20048;-48
2022/06/18 03:57:33;;;;;;;1.00;0.90;;;24.50;59.20;;;;;;6268345;28;20593;-47
2022/06/18 04:00:37;;;;;;;1.02;0.95;;;24.50;59.20;;;;;;6271573;28;20539;-49
2022/06/18 04:03:40;;;;;;;1.20;1.10;;;24.50;59.20;;;;;;6268452;28;20157;-47
2022/06/18 04:06:47;;;;;;;1.27;1.17;;;24.50;59.30;;;;;;6270680;28;20051;-49
2022/06/18 04:10:11;;;;;;;1.08;0.93;;;24.40;59.30;;;;;;6266514;28;20047;-49
2022/06/18 04:13:17;;;;;;;1.10;1.00;;;24.50;59.40;;;;;;6264921;28;20202;-45
2022/06/18 04:16:33;;;;;;;1.20;1.10;;;24.30;59.40;;;;;;6261515;28;20074;-48
2022/06/18 04:19:42;;;;;;;0.93;0.80;;;24.40;59.50;;;;;;6269635;28;20404;-45
2022/06/18 04:22:44;;;;;;;1.27;1.17;;;24.40;59.50;;;;;;6262511;28;20125;-46
2022/06/18 04:25:48;;;;;;;1.23;1.00;;;24.30;59.50;;;;;;6258699;28;20345;-48
2022/06/18 04:28:50;;;;;;;1.25;1.00;;;24.50;59.60;;;;;;6266969;28;20050;-48
2022/06/18 04:31:54;;;;;;;1.38;1.20;;;24.40;59.60;;;;;;6267365;28;20047;-48
2022/06/18 04:34:56;;;;;;;0.93;0.90;;;24.30;59.60;;;;;;6268509;28;20428;-49
2022/06/18 04:38:11;;;;;;;1.30;1.20;;;24.40;59.70;;;;;;6267759;28;20289;-47
2022/06/18 04:41:18;;;;;;;0.98;0.90;;;24.30;59.70;;;;;;6266312;28;20039;-50
2022/06/18 04:44:26;;;;;;;1.20;1.10;;;24.30;59.70;;;;;;6266752;28;20745;-47
2022/06/18 04:47:40;;;;;;;1.00;1.00;;;24.40;59.80;;;;;;6264627;28;20043;-48
2022/06/18 04:50:42;;;;;;;1.00;0.90;;;24.40;59.80;;;;;;6269722;28;20044;-48
2022/06/18 04:53:45;;;;;;;1.42;1.30;;;24.30;59.80;;;;;;6260642;28;20124;-48
2022/06/18 04:56:47;;;;;;;1.10;1.00;;;24.30;60.50;;;;;;6266544;28;20309;-48
2022/06/18 04:59:49;;;;;;;0.90;0.90;;;24.40;60.00;;;;;;6268409;28;20060;-50
2022/06/18 05:02:53;;;;;;;1.10;1.00;;;24.50;60.00;;;;;;6269890;28;20051;-47
2022/06/18 05:06:15;;;;;;;1.00;0.90;;;24.30;60.00;;;;;;6271264;28;20109;-47
2022/06/18 05:09:23;;;;;;;1.08;0.98;;;24.40;60.00;;;;;;6268722;28;20625;-46
2022/06/18 05:12:42;;;;;;;0.95;0.85;;;24.30;60.00;;;;;;6266596;28;20051;-50
2022/06/18 05:16:03;;;;;;;1.57;1.10;;;24.40;60.10;;;;;;6267140;28;20707;-47
2022/06/18 05:19:10;;;;;;;1.05;0.95;;;24.40;60.10;;;;;;6265496;28;20454;-51
2022/06/18 05:22:12;;;;;;;1.40;1.20;;;24.30;60.10;;;;;;6265185;28;20043;-51
2022/06/18 05:25:15;;;;;;;1.08;0.98;;;24.30;60.20;;;;;;6265219;28;20855;-48
2022/06/18 05:28:17;;;;;;;1.10;1.00;;;24.20;60.10;;;;;;6260482;28;20079;-46
2022/06/18 05:31:19;;;;;;;0.90;0.90;;;24.30;60.20;;;;;;6264326;28;20522;-49
2022/06/18 05:34:23;;;;;;;0.90;0.80;;;24.20;60.80;;;;;;6264904;28;20520;-45
2022/06/18 05:37:27;;;;;;;1.15;0.98;;;24.40;60.30;;;;;;6267199;28;20313;-48
2022/06/18 05:40:29;;;;;;;1.08;0.98;;;24.30;60.30;;;;;;6266090;28;20547;-47
2022/06/18 05:43:31;;;;;;;1.08;0.98;;;24.30;60.20;;;;;;6265946;28;20640;-48
2022/06/18 05:46:32;;;;;;;1.10;1.00;;;24.30;60.30;;;;;;6265117;28;20142;-46
2022/06/18 05:49:35;;;;;;;1.10;1.00;;;24.30;60.90;;;;;;6262537;28;20045;-47
2022/06/18 05:52:36;;;;;;;1.17;1.08;;;24.40;60.30;;;;;;6267026;28;20051;-47
2022/06/18 05:55:58;;;;;;;1.08;1.00;;;24.20;60.20;;;;;;6266507;28;20318;-50
2022/06/18 05:59:12;;;;;;;1.13;1.00;;;24.40;60.30;;;;;;6268192;28;20187;-48
2022/06/18 06:02:19;;;;;;;1.20;1.10;;;24.30;60.20;;;;;;6265904;28;20470;-49
2022/06/18 06:05:21;;;;;;;1.05;0.95;;;24.20;60.20;;;;;;6281523;28;20195;-50
2022/06/18 06:08:25;;;;;;;1.15;1.00;;;24.40;60.30;;;;;;6264632;28;20055;-47
2022/06/18 06:11:30;;;;;;;1.20;1.08;;;24.30;60.30;;;;;;6263204;28;20052;-50
2022/06/18 06:14:35;;;;;;;1.15;0.90;;;24.30;60.30;;;;;;6262626;28;20848;-47
2022/06/18 06:17:37;;;;;;;1.08;0.98;;;24.30;60.40;;;;;;6263559;28;20171;-50
2022/06/18 06:20:42;;;;;;;1.23;1.00;;;24.40;60.40;;;;;;6263119;28;20878;-48
2022/06/18 06:23:44;;;;;;;1.08;0.98;;;24.30;60.40;;;;;;6269587;28;20309;-48
2022/06/18 06:26:45;;;;;;;1.20;1.10;;;24.40;60.60;;;;;;6263821;28;20385;-49
2022/06/18 06:29:47;;;;;;;1.20;1.10;;;24.30;60.70;;;;;;6285121;28;20043;-48
2022/06/18 06:32:49;;;;;;;1.20;1.10;;;24.30;60.80;;;;;;6272399;28;20079;-48
2022/06/18 06:35:51;;;;;;;0.98;0.90;;;24.30;60.80;;;;;;6281658;28;20144;-45
2022/06/18 06:38:53;;;;;;;1.20;1.10;;;24.30;60.90;;;;;;6271465;28;21040;-48
2022/06/18 06:41:54;;;;;;;1.10;1.00;;;24.40;60.90;;;;;;6266050;28;20264;-46
2022/06/18 06:44:56;;;;;;;1.00;0.90;;;24.40;60.90;;;;;;6264230;28;20427;-48
2022/06/18 06:47:58;;;;;;;1.20;1.10;;;24.40;61.00;;;;;;6262421;28;20461;-48
2022/06/18 06:51:00;;;;;;;1.10;1.00;;;24.40;61.00;;;;;;6267565;28;20709;-46
2022/06/18 06:54:02;;;;;;;1.10;1.00;;;24.40;61.00;;;;;;6268366;28;20078;-49
2022/06/18 07:00:20;;;;;;;1.20;1.10;;;24.30;60.90;;;;;;6263860;28;20040;-46
2022/06/18 07:03:25;;;;;;;1.17;1.08;;;24.40;61.00;;;;;;6262425;28;20361;-48
2022/06/18 07:06:27;;;;;;;1.30;1.20;;;24.40;61.10;;;;;;6253721;28;20186;-51
2022/06/18 07:09:29;;;;;;;1.00;0.90;;;24.30;61.00;;;;;;6262872;28;20366;-47
2022/06/18 07:12:30;;;;;;;1.20;1.10;;;24.40;61.10;;;;;;6261369;28;20070;-51
2022/06/18 07:15:33;;;;;;;1.30;1.20;;;24.30;61.20;;;;;;6261931;28;20066;-47
2022/06/18 07:18:36;;;;;;;1.23;1.13;;;24.50;61.30;;;;;;6263978;28;20757;-51
2022/06/18 07:21:38;;;;;;;1.20;0.93;;;24.40;61.40;;;;;;6261366;28;20329;-47
2022/06/18 07:24:40;;;;;;;1.55;1.45;;;24.40;61.40;;;;;;6268321;28;20159;-47
2022/06/18 07:27:42;;;;;;;1.35;1.20;;;24.50;61.60;;;;;;6268197;28;20228;-49
2022/06/18 07:30:46;;;;;;;1.20;1.10;;;24.50;61.70;;;;;;6284065;28;20116;-47
2022/06/18 07:33:47;;;;;;;1.40;1.30;;;24.50;61.90;;;;;;6265637;28;20155;-47
2022/06/18 07:36:49;;;;;;;1.30;1.17;;;24.50;62.00;;;;;;6267050;28;20032;-48
2022/06/18 07:39:52;;;;;;;1.20;1.10;;;24.50;62.20;;;;;;6267403;28;20349;-46
2022/06/18 07:42:54;;;;;;;1.20;1.10;;;24.50;62.40;;;;;;6265106;28;20399;-46
2022/06/18 07:45:56;;;;;;;1.17;1.08;;;24.50;62.70;;;;;;6263479;28;20107;-49
2022/06/18 07:48:58;;;;;;;1.30;1.20;;;24.50;62.80;;;;;;6264893;28;20793;-48
2022/06/18 07:52:00;;;;;;;1.40;1.30;;;24.70;63.10;;;;;;6263029;28;20434;-46
2022/06/18 07:55:02;;;;;;;1.13;0.88;;;24.40;63.00;;;;;;6265534;28;20460;-49
2022/06/18 07:58:04;;;;;;;1.20;1.10;;;24.50;63.20;;;;;;6265713;28;20079;-47
2022/06/18 08:01:06;;;;;;;1.40;1.30;;;24.50;63.10;;;;;;6260756;28;20344;-49
2022/06/18 08:04:07;;;;;;;1.30;1.20;;;24.50;63.20;;;;;;6255424;28;21619;-48
2022/06/18 08:07:10;;;;;;;1.30;1.20;;;24.50;63.10;;;;;;6261665;28;20043;-45
2022/06/18 08:10:11;;;;;;;1.33;1.23;;;24.40;63.00;;;;;;6260776;28;21004;-47
2022/06/18 08:13:13;;;;;;;1.10;1.00;;;24.50;63.00;;;;;;6276015;28;20195;-52
2022/06/18 08:16:23;;;;;;;1.50;1.40;;;24.40;62.90;;;;;;6279293;28;20079;-50
2022/06/18 08:19:25;;;;;;;1.23;1.13;;;24.70;63.60;;;;;;6270522;28;20476;-46
2022/06/18 08:22:27;;;;;;;0.90;0.90;;;24.60;62.90;;;;;;6261403;28;20570;-51
2022/06/18 08:25:31;;;;;;;1.15;1.02;;;24.50;62.70;;;;;;6263659;28;20453;-48
2022/06/18 08:28:35;;;;;;;4.15;1.08;;;24.60;62.00;;;;;;6258834;28;20100;-43
2022/06/18 08:31:36;;;;;;;5.53;1.30;;;24.70;62.20;;;;;;6256800;28;20048;-49
2022/06/18 08:34:38;;;;;;;4.03;1.20;;;24.80;61.80;;;;;;6257893;28;20678;-43
2022/06/18 08:37:41;;;;;;;2.42;1.00;;;24.80;61.70;;;;;;6261502;28;20079;-44
2022/06/18 08:40:56;;;;;;;2.17;1.17;;;24.80;61.80;;;;;;6264415;28;20040;-46
2022/06/18 08:44:15;;;;;;;1.55;1.15;;;24.80;61.60;;;;;;6256817;28;20479;-44
2022/06/18 08:47:35;;;;;;;1.70;1.00;;;24.80;61.40;;;;;;6258379;28;20460;-45
2022/06/18 08:50:57;;;;;;;2.42;0.90;;;24.80;61.80;;;;;;6258969;28;20159;-47
2022/06/18 08:54:25;;;;;;;0.95;0.77;;;24.80;60.70;;;;;;6263429;28;20044;-43
2022/06/18 08:57:35;;;;;;;1.65;0.77;;;24.90;60.40;;;;;;6265027;28;20215;-45
2022/06/18 09:00:45;;;;;;;0.70;0.60;;;24.90;60.20;;;;;;6258790;28;20108;-48
2022/06/18 09:04:00;;;;;;;1.13;0.75;;;24.90;60.00;;;;;;6262831;28;20035;-44
2022/06/18 09:07:20;;;;;;;0.85;0.75;;;24.90;59.80;;;;;;6263913;28;20121;-44
2022/06/18 09:10:34;;;;;;;0.70;0.60;;;24.90;59.30;;;;;;6261808;28;20217;-44
2022/06/18 09:13:41;;;;;;;0.50;0.50;;;24.90;59.00;;;;;;6265155;28;20047;-44
2022/06/18 09:16:48;;;;;;;0.75;0.65;;;24.90;59.10;;;;;;6257951;28;20053;-49
2022/06/18 09:19:56;;;;;;;2.50;0.75;;;24.90;58.70;;;;;;6260417;28;20076;-47
2022/06/18 09:23:04;;;;;;;0.90;0.60;;;24.90;58.50;;;;;;6274821;28;20040;-46
2022/06/18 09:26:13;;;;;;;0.70;0.60;;;24.90;58.30;;;;;;6277032;28;20052;-47
2022/06/18 09:29:21;;;;;;;0.60;0.60;;;24.90;58.20;;;;;;6264999;28;20052;-49
2022/06/18 09:32:30;;;;;;;0.70;0.60;;;25.00;58.10;;;;;;6257666;28;20174;-47
2022/06/18 09:35:36;;;;;;;0.90;0.52;;;24.90;57.90;;;;;;6265822;28;20082;-44
2022/06/18 09:38:42;;;;;;;1.02;0.60;;;25.00;57.70;;;;;;6262965;28;20643;-46
2022/06/18 09:41:52;;;;;;;0.55;0.47;;;25.00;57.50;;;;;;6262551;28;20859;-45
2022/06/18 09:45:00;;;;;;;0.68;0.57;;;25.00;57.30;;;;;;6273225;28;20162;-47
2022/06/18 09:48:02;;;;;;;0.50;0.50;;;25.00;57.10;;;;;;6285356;28;20047;-45
2022/06/18 09:51:15;;;;;;;0.70;0.70;;;25.00;56.90;;;;;;6284378;28;20121;-48
2022/06/18 09:54:18;;;;;;;0.93;0.60;;;25.00;56.70;;;;;;6277566;28;20036;-45
2022/06/18 09:57:25;;;;;;;0.70;0.63;;;24.90;56.40;;;;;;6283328;28;20044;-47
2022/06/18 10:00:31;;;;;;;0.73;0.55;;;24.90;56.20;;;;;;6274917;28;20040;-44
2022/06/18 10:06:55;;;;;;;0.40;0.40;;;25.10;56.20;;;;;;6267707;28;20540;-50
2022/06/18 10:10:15;;;;;;;0.57;0.57;;;25.10;56.10;;;;;;6268381;28;20155;-44
2022/06/18 10:13:24;;;;;;;0.70;0.60;;;25.10;56.00;;;;;;6266869;28;20375;-44
2022/06/18 10:16:34;;;;;;;0.50;0.50;;;25.00;55.90;;;;;;6266323;28;20087;-43
2022/06/18 10:19:49;;;;;;;0.70;0.60;;;25.10;55.90;;;;;;6267127;28;20286;-47
2022/06/18 10:23:02;;;;;;;0.60;0.50;;;25.10;55.80;;;;;;6264433;28;20395;-47
2022/06/18 10:26:16;;;;;;;0.52;0.50;;;25.10;55.70;;;;;;6266210;28;20040;-46
2022/06/18 10:29:31;;;;;;;0.73;0.73;;;25.20;55.70;;;;;;6261074;28;20452;-45
2022/06/18 10:32:45;;;;;;;1.02;0.68;;;25.10;55.60;;;;;;6256800;28;20919;-44
2022/06/18 10:35:53;;;;;;;0.80;0.60;;;25.10;55.50;;;;;;6264410;28;20556;-45
2022/06/18 10:39:08;;;;;;;0.85;0.65;;;25.10;55.50;;;;;;6265313;28;20872;-45
2022/06/18 10:42:23;;;;;;;1.00;0.60;;;25.00;55.40;;;;;;6267476;28;20473;-46
2022/06/18 10:45:34;;;;;;;1.00;0.70;;;25.10;55.30;;;;;;6266767;28;20054;-46
2022/06/18 10:48:35;;;;;;;0.68;0.50;;;25.10;55.20;;;;;;6267556;28;20072;-46
2022/06/18 10:51:42;;;;;;;0.50;0.45;;;25.00;55.20;;;;;;6268202;28;20636;-46
2022/06/18 10:54:45;;;;;;;0.70;0.60;;;25.10;55.30;;;;;;6264914;28;20954;-45
2022/06/18 10:57:48;;;;;;;1.10;0.85;;;25.10;55.20;;;;;;6269825;28;20341;-46
2022/06/18 11:00:56;;;;;;;0.70;0.60;;;25.10;55.20;;;;;;6252760;28;20125;-46
2022/06/18 11:04:00;;;;;;;0.60;0.47;;;25.20;55.20;;;;;;6265493;28;20039;-44
2022/06/18 11:07:06;;;;;;;0.80;0.77;;;25.20;55.10;;;;;;6267698;28;20207;-45
2022/06/18 11:10:21;;;;;;;0.98;0.60;;;25.20;55.10;;;;;;6263922;28;20044;-46
2022/06/18 11:13:28;;;;;;;0.80;0.60;;;25.20;55.00;;;;;;6262595;28;20040;-48
2022/06/18 11:16:40;;;;;;;1.00;0.50;;;25.20;54.90;;;;;;6262115;28;21224;-46
2022/06/18 11:19:48;;;;;;;0.70;0.60;;;25.10;54.80;;;;;;6265601;28;20048;-44
2022/06/18 11:22:53;;;;;;;0.82;0.40;;;25.20;54.70;;;;;;6267978;28;20071;-50
2022/06/18 11:25:57;;;;;;;1.02;0.60;;;25.20;54.50;;;;;;6265033;28;20204;-44
2022/06/18 11:29:04;;;;;;;0.68;0.63;;;25.20;54.40;;;;;;6262530;28;20154;-48
2022/06/18 11:32:10;;;;;;;1.25;0.70;;;25.20;54.30;;;;;;6239849;28;20048;-46
2022/06/18 11:35:20;;;;;;;0.95;0.60;;;25.20;54.20;;;;;;6257260;28;20142;-44
2022/06/18 11:38:31;;;;;;;0.80;0.40;;;25.20;54.10;;;;;;6264740;28;20292;-47
2022/06/18 11:41:35;;;;;;;;;;;25.30;54.10;;;;;;6262921;28;20032;-46
2022/06/18 11:44:43;;;;;;;1.10;0.68;;;25.20;54.00;;;;;;6257565;28;20095;-44
2022/06/18 11:47:51;;;;;;;1.38;0.70;;;25.20;53.90;;;;;;6241943;28;20476;-44
2022/06/18 11:50:59;;;;;;;1.13;0.43;;;25.10;53.70;;;;;;6257229;28;21021;-46
2022/06/18 11:54:10;;;;;;;1.27;0.73;;;25.20;53.80;;;;;;6249206;28;20143;-45
2022/06/18 11:57:17;;;;;;;0.73;0.50;;;25.20;53.70;;;;;;6258994;28;20051;-46
2022/06/18 12:00:22;;;;;;;1.00;0.68;;;25.30;53.60;;;;;;6252551;28;20043;-44
2022/06/18 12:03:30;;;;;;;1.05;0.73;;;25.30;53.60;;;;;;6252058;28;20677;-43
2022/06/18 12:06:39;;;;;;;1.63;0.85;;;25.20;53.00;;;;;;6258503;28;20052;-44
2022/06/18 12:09:58;;;;;;;0.95;0.73;;;25.30;53.30;;;;;;6260943;28;20036;-44
2022/06/18 12:13:08;;;;;;;0.75;0.60;;;25.30;53.30;;;;;;6241025;28;20811;-46
2022/06/18 12:16:21;;;;;;;1.25;0.70;;;25.30;53.30;;;;;;6264675;28;20285;-44
2022/06/18 12:19:29;;;;;;;0.77;0.50;;;25.30;53.20;;;;;;6257735;28;20329;-45
2022/06/18 12:22:40;;;;;;;0.82;0.47;;;25.40;53.30;;;;;;6262445;28;20409;-49
2022/06/18 12:25:50;;;;;;;0.70;0.50;;;25.30;53.10;;;;;;6258040;28;20048;-48
2022/06/18 12:29:10;;;;;;;0.75;0.40;;;25.30;53.10;;;;;;6259459;28;20421;-46
2022/06/18 12:32:20;;;;;;;0.60;0.50;;;25.40;53.10;;;;;;6251578;28;20119;-45
2022/06/18 12:35:33;;;;;;;0.70;0.50;;;25.40;53.10;;;;;;6260640;28;20755;-44
2022/06/18 12:38:40;;;;;;;0.55;0.50;;;25.30;52.90;;;;;;6249355;28;20179;-44
2022/06/18 12:41:50;;;;;;;0.80;0.70;;;25.40;52.90;;;;;;6243824;28;20283;-46
2022/06/18 12:45:01;;;;;;;0.45;0.40;;;25.40;52.80;;;;;;6246067;28;20048;-48
2022/06/18 12:48:12;;;;;;;1.20;0.65;;;25.40;52.70;;;;;;6255721;28;20068;-44
2022/06/18 12:51:22;;;;;;;0.75;0.60;;;25.40;52.60;;;;;;6256073;28;20839;-43
2022/06/18 12:54:35;;;;;;;0.80;0.40;;;25.40;52.50;;;;;;6258904;28;20158;-45
2022/06/18 12:57:52;;;;;;;1.38;0.70;;;25.40;52.40;;;;;;6257572;28;20303;-43
2022/06/18 13:00:59;;;;;;;0.77;0.50;;;25.40;52.40;;;;;;6255595;28;20281;-43
2022/06/18 13:04:21;;;;;;;0.70;0.52;;;25.50;52.40;;;;;;6252389;28;20044;-44
2022/06/18 13:07:32;;;;;;;1.33;0.80;;;25.40;52.20;;;;;;6255575;28;20605;-45
2022/06/18 13:10:41;;;;;;;1.42;0.63;;;25.40;52.30;;;;;;6256126;28;20210;-46
2022/06/18 13:13:55;;;;;;;0.70;0.50;;;25.50;52.30;;;;;;6262813;28;20044;-45
2022/06/18 13:17:02;;;;;;;0.60;0.40;;;25.50;52.40;;;;;;6260844;28;20734;-46
2022/06/18 13:20:13;;;;;;;0.95;0.80;;;25.50;52.40;;;;;;6260513;28;20048;-44
2022/06/18 13:29:59;;;;;;;0.95;0.65;;;25.50;52.40;;;;;;6259258;28;20040;-43
2022/06/18 13:33:06;;;;;;;1.30;0.60;;;25.50;52.20;;;;;;6256724;28;20907;-45
2022/06/18 13:36:17;;;;;;;0.50;0.40;;;25.50;52.00;;;;;;6255059;28;20384;-49
2022/06/18 13:39:29;;;;;;;0.65;0.40;;;25.50;51.80;;;;;;6241483;28;21550;-45
2022/06/18 13:42:40;;;;;;;0.80;0.50;;;25.50;51.70;;;;;;6256258;28;20051;-44
2022/06/18 13:45:50;;;;;;;1.05;0.60;;;25.50;51.60;;;;;;6248451;28;20306;-44
2022/06/18 13:49:05;;;;;;;1.00;0.65;;;25.50;51.60;;;;;;6257415;28;20170;-45
2022/06/18 13:52:07;;;;;;;1.60;0.57;;;25.60;51.50;;;;;;6258409;28;20057;-49
2022/06/18 13:55:10;;;;;;;1.27;0.70;;;25.60;51.40;;;;;;6260167;28;20352;-46
2022/06/18 13:58:26;;;;;;;1.05;0.60;;;25.60;51.30;;;;;;6244771;28;20347;-45
2022/06/18 14:01:31;;;;;;;0.98;0.52;;;25.60;51.10;;;;;;6261554;28;20054;-45
2022/06/18 14:04:36;;;;;;;0.90;0.45;;;25.70;50.90;;;;;;6257303;28;20561;-46
2022/06/18 14:07:43;;;;;;;1.25;0.60;;;25.60;50.50;;;;;;6259713;28;20460;-45
2022/06/18 14:10:45;;;;;;;1.10;0.68;;;25.50;50.10;;;;;;6253601;28;20866;-43
2022/06/18 14:13:49;;;;;;;0.65;0.55;;;25.60;49.90;;;;;;6257363;28;20372;-46
2022/06/18 14:17:01;;;;;;;0.47;0.47;;;25.60;49.50;;;;;;6255143;28;20545;-47
2022/06/18 14:20:02;;;;;;;;;;;25.60;49.20;;;;;;6261717;28;20317;-46
2022/06/18 14:23:08;;;;;;;1.00;0.57;;;25.60;49.30;;;;;;6264019;28;20206;-47
2022/06/18 14:26:14;;;;;;;1.92;0.50;;;25.70;49.40;;;;;;6255156;28;20733;-46
2022/06/18 14:29:16;;;;;;;0.40;0.30;;;25.70;49.00;;;;;;6256758;28;20420;-48
2022/06/18 14:32:37;;;;;;;0.80;0.50;;;25.70;49.00;;;;;;6256236;28;20785;-44
2022/06/18 14:35:46;;;;;;;1.38;0.65;;;25.60;48.90;;;;;;6255984;28;20445;-46
2022/06/18 14:38:52;;;;;;;0.80;0.68;;;25.70;49.10;;;;;;6253464;28;20039;-47
2022/06/18 14:42:04;;;;;;;1.15;0.47;;;25.70;49.10;;;;;;6258949;28;20300;-47
2022/06/18 14:45:21;;;;;;;1.15;0.70;;;25.70;49.10;;;;;;6255001;28;20047;-46
2022/06/18 14:48:40;;;;;;;1.17;0.60;;;25.70;49.10;;;;;;6255862;28;20257;-45
2022/06/18 14:52:03;;;;;;;1.05;0.60;;;25.80;49.20;;;;;;6259494;28;21067;-46
2022/06/18 14:55:20;;;;;;;0.70;0.50;;;25.70;49.10;;;;;;6244669;28;20243;-45
2022/06/18 14:58:51;;;;;;;0.88;0.50;;;25.70;49.20;;;;;;6259818;28;20221;-44
2022/06/18 15:01:59;;;;;;;1.52;0.70;;;25.80;49.30;;;;;;6261322;28;20443;-45
2022/06/18 15:05:03;;;;;;;0.70;0.68;;;25.80;49.20;;;;;;6254839;28;20082;-47
2022/06/18 15:08:10;;;;;;;0.88;0.60;;;25.90;49.30;;;;;;6261446;28;20079;-45
2022/06/18 15:11:15;;;;;;;1.02;0.60;;;25.80;49.20;;;;;;6259122;28;20166;-44
2022/06/18 15:14:25;;;;;;;0.57;0.52;;;25.80;49.10;;;;;;6264288;28;20577;-43
2022/06/18 15:17:30;;;;;;;0.73;0.50;;;25.80;49.00;;;;;;6261593;28;20377;-44
2022/06/18 15:20:50;;;;;;;0.85;0.55;;;25.90;49.00;;;;;;6260261;28;20048;-45
2022/06/18 15:23:58;;;;;;;0.80;0.55;;;25.90;49.00;;;;;;6264469;28;20044;-46
2022/06/18 15:26:59;;;;;;;0.82;0.60;;;25.90;49.00;;;;;;6263125;28;20075;-47
2022/06/18 15:30:23;;;;;;;0.70;0.52;;;25.90;48.90;;;;;;6258816;28;20059;-47
2022/06/18 15:33:26;;;;;;;0.75;0.50;;;25.90;48.90;;;;;;6257348;28;20431;-43
2022/06/18 15:36:31;;;;;;;0.63;0.40;;;26.00;49.00;;;;;;6258928;28;20313;-45
2022/06/18 15:39:34;;;;;;;0.75;0.57;;;25.90;48.90;;;;;;6246987;28;20351;-46
2022/06/18 15:42:39;;;;;;;1.30;0.60;;;26.00;49.00;;;;;;6253994;28;20450;-47
2022/06/18 15:45:47;;;;;;;0.75;0.40;;;26.00;49.00;;;;;;6250660;28;20059;-45
2022/06/18 15:48:51;;;;;;;0.75;0.50;;;26.00;48.90;;;;;;6235127;28;20789;-47
2022/06/18 15:51:54;;;;;;;0.60;0.40;;;26.00;49.00;;;;;;6261517;28;20149;-46
2022/06/18 15:55:00;;;;;;;0.70;0.50;;;26.00;49.00;;;;;;6260390;28;20473;-46
2022/06/18 15:58:03;;;;;;;1.27;0.63;;;26.10;49.00;;;;;;6256298;28;20461;-49
2022/06/18 16:01:05;;;;;;;1.55;0.75;;;26.10;48.90;;;;;;6249557;28;20067;-49
2022/06/18 16:04:09;;;;;;;0.85;0.60;;;26.10;48.90;;;;;;6249569;28;20488;-47
2022/06/18 16:07:13;;;;;;;1.05;0.68;;;26.10;49.20;;;;;;6250215;28;20079;-45
2022/06/18 16:10:33;;;;;;;1.02;0.90;;;26.10;50.00;;;;;;6254250;28;20600;-44
2022/06/18 16:13:37;;;;;;;1.17;0.70;;;26.10;51.40;;;;;;6252974;28;20821;-45
2022/06/18 16:16:45;;;;;;;1.73;0.75;;;26.10;51.70;;;;;;6257096;28;20174;-47
2022/06/18 16:19:49;;;;;;;1.23;0.80;;;26.20;52.70;;;;;;6252454;28;20067;-47
2022/06/18 16:22:58;;;;;;;0.85;0.70;;;26.20;53.20;;;;;;6253840;28;20148;-47
2022/06/18 16:26:01;;;;;;;1.80;1.15;;;26.20;54.00;;;;;;6251155;28;21364;-46
2022/06/18 16:29:03;;;;;;;1.17;0.70;;;26.30;54.50;;;;;;6252380;28;20040;-48
2022/06/18 16:32:28;;;;;;;0.85;0.75;;;26.30;54.90;;;;;;6250878;28;20081;-45
2022/06/18 16:35:29;;;;;;;1.00;0.90;;;26.30;55.70;;;;;;6256934;28;20390;-46
2022/06/18 16:38:33;;;;;;;0.80;0.80;;;26.30;55.70;;;;;;6250132;28;20492;-46